Terminal Aerodrome Forecast
Issued by NWS Cleveland, OH

Home | Current Version | Previous Version | Graphics & Text | Print | Product List | Glossary On
Versions: 1 2 3 4 5 6 7 8 9 10 11 12 13 14 15 16 17 18 19 20 21
000
FTUS41 KCLE 190400 AAA
TAFMFD
TAF AMD
KMFD 190406Z 1904/1924 32008KT P6SM SCT015 OVC025
      TEMPO 1904/1908 BKN015
     FM191000 29005KT P6SM BKN035
     FM191600 28006KT P6SM SCT035=

USA.gov is the U.S. government's official web portal to all federal, state and local government web resources and services.